createdAt,value
2018-05-09T00:03:29.750Z,2.97
2018-05-09T00:08:32.579Z,2.73
2018-05-09T00:13:36.484Z,2.93
2018-05-09T00:18:39.386Z,3.23
2018-05-09T00:23:42.304Z,3.30
2018-05-09T00:28:45.331Z,3.10
2018-05-09T00:33:48.265Z,3.07
2018-05-09T00:38:51.153Z,3.07
2018-05-09T00:43:54.512Z,3.30
2018-05-09T00:48:57.353Z,3.40
2018-05-09T00:54:11.799Z,2.70
2018-05-09T00:59:16.499Z,2.73
2018-05-09T01:04:19.530Z,4.00
2018-05-09T01:09:22.385Z,3.57
2018-05-09T01:14:26.283Z,3.00
2018-05-09T01:19:28.869Z,4.20
2018-05-09T01:24:32.446Z,3.63
2018-05-09T01:29:35.081Z,3.60
2018-05-09T01:34:38.743Z,3.50
2018-05-09T01:39:41.457Z,3.53
2018-05-09T01:44:44.065Z,3.57
2018-05-09T01:49:47.011Z,3.40
2018-05-09T01:54:49.864Z,3.67
2018-05-09T01:59:52.360Z,3.47
2018-05-09T02:04:55.305Z,3.30
2018-05-09T02:09:57.974Z,3.53
2018-05-09T02:15:01.675Z,3.83
2018-05-09T02:20:04.276Z,3.87
2018-05-09T02:25:08.681Z,3.73
2018-05-09T02:30:11.269Z,4.00
2018-05-09T02:35:13.881Z,3.40
2018-05-09T02:40:16.494Z,4.10
2018-05-09T02:45:19.232Z,3.63
2018-05-09T02:50:22.039Z,4.20
2018-05-09T02:55:24.668Z,4.00
2018-05-09T03:00:29.313Z,3.33
2018-05-09T03:05:31.937Z,4.57
2018-05-09T03:10:34.660Z,4.10
2018-05-09T03:15:37.651Z,4.87
2018-05-09T03:20:40.748Z,4.17
2018-05-09T03:25:43.654Z,4.80
2018-05-09T03:30:48.633Z,4.13
2018-05-09T03:35:52.712Z,4.07
2018-05-09T03:40:55.470Z,4.20
2018-05-09T03:45:58.296Z,4.53
2018-05-09T03:51:02.497Z,4.23
2018-05-09T03:56:06.096Z,4.07
2018-05-09T04:01:08.719Z,4.73
2018-05-09T04:06:24.531Z,5.23
2018-05-09T04:11:27.313Z,4.67
2018-05-09T04:16:30.056Z,4.20
2018-05-09T04:21:33.030Z,4.47
2018-05-09T04:26:36.470Z,3.90
2018-05-09T04:31:39.260Z,5.27
2018-05-09T04:36:42.123Z,5.27
2018-05-09T04:41:47.022Z,5.13
2018-05-09T04:46:49.820Z,5.50
2018-05-09T04:51:52.526Z,4.60
2018-05-09T04:56:55.492Z,5.87
2018-05-09T05:01:58.514Z,5.17
2018-05-09T05:07:01.609Z,5.63
2018-05-09T05:12:05.174Z,5.43
2018-05-09T05:17:09.107Z,6.20
2018-05-09T05:22:12.477Z,5.93
2018-05-09T05:27:18.656Z,5.80
2018-05-09T05:32:22.872Z,5.70
2018-05-09T05:37:26.371Z,6.30
2018-05-09T05:42:31.460Z,5.40
2018-05-09T05:47:35.160Z,5.77
2018-05-09T05:52:49.883Z,5.20
2018-05-09T06:03:06.593Z,5.73
2018-05-09T06:08:10.276Z,5.60
2018-05-09T06:13:12.868Z,5.00
2018-05-09T06:18:20.667Z,4.93
2018-05-09T06:23:25.879Z,4.97
2018-05-09T06:28:30.405Z,5.37
2018-05-09T06:33:36.939Z,4.20
2018-05-09T06:38:43.560Z,4.87
2018-05-09T06:43:47.044Z,4.97
2018-05-09T06:48:50.452Z,4.73
2018-05-09T06:53:54.847Z,4.10
2018-05-09T06:58:59.438Z,4.93
2018-05-09T07:04:02.640Z,3.50
2018-05-09T07:09:12.354Z,4.13
2018-05-09T07:14:22.505Z,3.83
2018-05-09T07:19:42.347Z,2.73
2018-05-09T07:24:45.818Z,3.47
2018-05-09T07:29:50.052Z,3.07
2018-05-09T07:34:58.613Z,3.17
2018-05-09T07:40:04.990Z,2.10
2018-05-09T07:45:09.937Z,2.50
2018-05-09T07:50:13.853Z,2.20
2018-05-09T07:55:18.531Z,2.10
2018-05-09T08:00:22.126Z,2.17
2018-05-09T08:05:30.847Z,2.20
2018-05-09T08:10:39.630Z,1.97
2018-05-09T08:15:46.295Z,2.10
2018-05-09T08:20:51.088Z,2.90
2018-05-09T08:25:56.267Z,2.30
2018-05-09T08:31:07.509Z,2.00
2018-05-09T08:36:17.178Z,2.00
2018-05-09T08:41:27.743Z,2.00
2018-05-09T08:51:54.582Z,2.07
2018-05-09T09:02:36.743Z,2.20
2018-05-09T09:07:54.924Z,2.10
2018-05-09T09:18:19.611Z,2.50
2018-05-09T09:23:27.259Z,2.07
2018-05-09T09:28:35.556Z,2.30
2018-05-09T09:33:54.824Z,2.10
2018-05-09T09:44:47.036Z,1.83
2018-05-09T10:32:48.396Z,1.83
2018-05-09T10:43:31.922Z,1.70
2018-05-09T10:48:48.502Z,1.77
2018-05-09T10:59:21.994Z,2.03
2018-05-09T11:04:32.539Z,2.03
2018-05-09T11:09:55.146Z,1.33
2018-05-09T11:15:02.474Z,1.73
2018-05-09T11:20:20.645Z,1.27
2018-05-09T11:32:53.775Z,1.53
2018-05-09T11:37:59.570Z,1.87
2018-05-09T11:48:41.674Z,2.20
2018-05-09T11:53:53.168Z,2.53
2018-05-09T12:09:39.755Z,2.27
2018-05-09T12:15:29.578Z,2.63
2018-05-09T13:20:07.618Z,1.90
2018-05-09T13:47:29.957Z,1.60
2018-05-09T13:52:42.601Z,2.00
2018-05-09T13:57:49.621Z,1.33
2018-05-09T14:08:33.979Z,2.03
2018-05-09T14:13:48.475Z,2.00
2018-05-09T14:18:51.475Z,2.13
2018-05-09T14:23:56.521Z,2.23
2018-05-09T14:29:00.794Z,2.10
2018-05-09T14:40:24.757Z,1.80
2018-05-09T14:45:33.200Z,2.37
2018-05-09T15:01:46.699Z,1.80
2018-05-09T15:12:34.359Z,2.20
2018-05-09T15:17:39.633Z,1.53
2018-05-09T15:28:05.619Z,1.70
2018-05-09T15:33:14.127Z,3.00
2018-05-09T15:38:19.446Z,2.33
2018-05-09T15:43:21.989Z,1.90
2018-05-09T15:48:33.049Z,5.00
2018-05-09T15:53:41.101Z,1.47
2018-05-09T15:58:49.403Z,1.63
2018-05-09T16:03:51.977Z,1.70
2018-05-09T16:09:05.199Z,1.70
2018-05-09T16:14:19.510Z,2.30
2018-05-09T16:25:02.069Z,2.03
2018-05-09T16:30:11.626Z,2.00
2018-05-09T16:35:24.443Z,2.30
2018-05-09T16:40:28.342Z,2.20
2018-05-09T16:45:31.427Z,2.20
2018-05-09T16:50:34.121Z,2.53
2018-05-09T16:55:42.927Z,2.60
2018-05-09T17:00:46.451Z,2.10
2018-05-09T17:05:49.455Z,2.40
2018-05-09T17:10:54.094Z,2.00
2018-05-09T17:15:56.798Z,2.00
2018-05-09T17:20:59.361Z,2.33
2018-05-09T17:26:02.687Z,2.10
2018-05-09T17:31:06.152Z,2.23
2018-05-09T17:36:09.502Z,2.00
2018-05-09T17:41:15.634Z,1.90
2018-05-09T17:46:18.321Z,2.40
2018-05-09T19:11:48.480Z,2.03
2018-05-09T19:16:58.055Z,1.47
2018-05-09T19:22:10.619Z,1.90
2018-05-09T19:27:20.432Z,2.23
2018-05-09T19:32:31.569Z,1.83
2018-05-09T19:37:43.081Z,2.17
2018-05-09T19:42:51.695Z,2.00
2018-05-09T19:47:59.008Z,2.23
2018-05-09T19:53:06.026Z,1.97
2018-05-09T19:58:18.243Z,2.20
2018-05-09T20:03:26.981Z,1.93
2018-05-09T20:08:35.850Z,1.87
2018-05-09T20:13:43.685Z,2.20
2018-05-09T20:18:49.035Z,2.20
2018-05-09T20:24:04.810Z,2.07
2018-05-09T20:29:19.636Z,2.50
2018-05-09T20:34:30.112Z,2.40
2018-05-09T20:39:35.909Z,2.20
2018-05-09T20:44:44.196Z,2.27
2018-05-09T20:49:53.769Z,2.20
2018-05-09T20:55:00.108Z,2.20
2018-05-09T21:05:26.317Z,2.53
2018-05-09T21:10:36.403Z,2.40
2018-05-09T21:15:53.302Z,2.40
2018-05-09T21:21:05.984Z,2.40
2018-05-09T21:26:18.023Z,2.20
2018-05-09T21:31:28.170Z,3.47
2018-05-09T21:36:33.827Z,2.27
2018-05-09T21:41:39.283Z,2.47
2018-05-09T21:46:44.681Z,2.80
2018-05-09T21:51:52.414Z,1.97
2018-05-09T21:56:58.847Z,2.07
2018-05-09T22:02:16.071Z,2.20
2018-05-09T22:07:22.918Z,2.40
2018-05-09T22:12:29.798Z,1.97
2018-05-09T22:22:46.116Z,2.77
2018-05-09T22:27:59.169Z,2.83
2018-05-09T22:33:06.376Z,2.40
2018-05-09T22:38:14.331Z,2.77
2018-05-09T22:43:27.268Z,2.50
2018-05-09T22:48:33.735Z,2.03
2018-05-09T22:53:39.243Z,2.40
2018-05-09T22:58:45.055Z,3.20
2018-05-09T23:03:53.533Z,2.60
2018-05-09T23:08:57.463Z,2.40
2018-05-09T23:14:03.138Z,2.40
2018-05-09T23:24:25.604Z,2.73
2018-05-09T23:29:30.785Z,2.20
2018-05-09T23:34:40.755Z,2.77
2018-05-09T23:39:51.255Z,2.77
2018-05-09T23:50:12.296Z,2.67
